Time;durP1;ratioP1;P1;durP2;ratioP2;P2;SDS_P1;SDS_P2;PMS_P1;PMS_P2;Temp;Humidity;BMP_temperature;BMP_pressure;BME280_temperature;BME280_humidity;BME280_pressure;Samples;Min_cycle;Max_cycle;Signal;HPM_P1;HPM_P2
2023/04/19 00:00:30;;;;;;;16.33;11.40;;;9.10;99.90;;;;;;5011504;28;20045;-73
2023/04/19 00:02:56;;;;;;;16.48;11.05;;;9.10;99.90;;;;;;5005905;28;20616;-71
2023/04/19 00:05:23;;;;;;;18.73;11.38;;;9.00;99.90;;;;;;5012297;28;20024;-73
2023/04/19 00:07:49;;;;;;;17.13;11.73;;;9.00;99.90;;;;;;5006923;28;20053;-73
2023/04/19 00:10:15;;;;;;;15.48;11.10;;;9.00;99.90;;;;;;5009787;28;20041;-72
2023/04/19 00:12:41;;;;;;;15.98;10.63;;;9.00;99.90;;;;;;4998768;28;20025;-72
2023/04/19 00:15:07;;;;;;;15.60;10.00;;;9.00;99.90;;;;;;5004774;28;20018;-72
2023/04/19 00:17:33;;;;;;;16.20;10.50;;;9.00;99.90;;;;;;4999951;28;20045;-72
2023/04/19 00:19:59;;;;;;;15.65;10.57;;;8.90;99.90;;;;;;5011851;28;20033;-72
2023/04/19 00:22:25;;;;;;;16.08;10.57;;;8.90;99.90;;;;;;5007131;28;20030;-72
2023/04/19 00:24:51;;;;;;;14.48;9.95;;;8.90;99.90;;;;;;5016573;28;20026;-72
2023/04/19 00:27:17;;;;;;;20.15;10.48;;;8.90;99.90;;;;;;5011027;28;20440;-72
2023/04/19 00:29:42;;;;;;;16.83;10.27;;;8.90;99.90;;;;;;5011085;28;20030;-72
2023/04/19 00:32:08;;;;;;;18.98;10.95;;;8.90;99.90;;;;;;5004728;28;20358;-72
2023/04/19 00:34:34;;;;;;;15.88;10.40;;;8.90;99.90;;;;;;5005682;28;20049;-72
2023/04/19 00:36:59;;;;;;;16.50;11.10;;;8.90;99.90;;;;;;5011273;28;20022;-72
2023/04/19 00:39:25;;;;;;;16.20;10.98;;;8.90;99.90;;;;;;5000720;28;20022;-72
2023/04/19 00:41:51;;;;;;;18.75;12.20;;;8.90;99.90;;;;;;5004652;28;20030;-72
2023/04/19 00:44:17;;;;;;;16.92;11.77;;;8.80;99.90;;;;;;5010198;28;20049;-72
2023/04/19 00:46:43;;;;;;;18.25;11.40;;;8.80;99.90;;;;;;5011032;28;20026;-73
2023/04/19 00:49:09;;;;;;;20.38;12.85;;;8.80;99.90;;;;;;5010468;28;20099;-72
2023/04/19 00:51:35;;;;;;;16.77;12.13;;;8.80;99.90;;;;;;5010304;28;20022;-72
2023/04/19 00:54:02;;;;;;;19.35;12.00;;;8.80;99.90;;;;;;5012619;28;20057;-72
2023/04/19 00:56:29;;;;;;;17.90;11.75;;;8.70;99.90;;;;;;5007362;28;20027;-72
2023/04/19 00:58:56;;;;;;;16.65;11.75;;;8.70;99.90;;;;;;5003982;28;20104;-72
2023/04/19 01:01:22;;;;;;;20.60;12.07;;;8.70;99.90;;;;;;5010392;28;20026;-72
2023/04/19 01:03:48;;;;;;;17.70;11.82;;;8.70;99.90;;;;;;5012041;28;20049;-71
2023/04/19 01:06:14;;;;;;;16.77;11.15;;;8.70;99.90;;;;;;5006965;28;20061;-71
2023/04/19 01:08:39;;;;;;;16.35;10.98;;;8.70;99.90;;;;;;5011981;28;20033;-71
2023/04/19 01:11:07;;;;;;;20.27;11.90;;;8.70;99.90;;;;;;5013119;28;20411;-71
2023/04/19 01:13:33;;;;;;;16.77;11.60;;;8.70;99.90;;;;;;5020407;28;20022;-72
2023/04/19 01:15:59;;;;;;;16.88;11.55;;;8.60;99.90;;;;;;5011558;28;20054;-72
2023/04/19 01:18:25;;;;;;;19.58;12.02;;;8.60;99.90;;;;;;5011054;28;20481;-72
2023/04/19 01:20:51;;;;;;;18.10;11.50;;;8.60;99.90;;;;;;5010980;28;20036;-72
2023/04/19 01:23:17;;;;;;;18.27;12.20;;;8.60;99.90;;;;;;5012615;28;20407;-72
2023/04/19 01:25:42;;;;;;;18.67;12.07;;;8.60;99.90;;;;;;5011438;28;20034;-72
2023/04/19 01:28:08;;;;;;;18.98;11.82;;;8.70;99.90;;;;;;5010892;28;20030;-72
2023/04/19 01:30:34;;;;;;;17.63;12.23;;;8.70;99.90;;;;;;5011401;28;20095;-72
2023/04/19 01:33:00;;;;;;;19.52;12.82;;;8.70;99.90;;;;;;5011652;28;20024;-72
2023/04/19 01:35:25;;;;;;;21.05;12.55;;;8.70;99.90;;;;;;5011647;28;20400;-72
2023/04/19 01:37:54;;;;;;;20.80;13.52;;;8.70;99.90;;;;;;5007401;28;20029;-72
2023/04/19 01:40:21;;;;;;;19.42;13.43;;;8.70;99.90;;;;;;5007450;28;20053;-72
2023/04/19 01:42:46;;;;;;;18.25;12.88;;;8.70;99.90;;;;;;5008283;28;20467;-72
2023/04/19 01:45:12;;;;;;;20.48;13.77;;;8.70;99.90;;;;;;5002928;28;20103;-72
2023/04/19 01:47:38;;;;;;;19.35;13.15;;;8.70;99.90;;;;;;5010113;28;20042;-72
2023/04/19 01:50:04;;;;;;;20.38;12.73;;;8.60;99.90;;;;;;5001000;28;20088;-72
2023/04/19 01:52:29;;;;;;;19.60;12.73;;;8.60;99.90;;;;;;5010070;28;20030;-72
2023/04/19 01:54:55;;;;;;;21.55;13.25;;;8.60;99.90;;;;;;5003973;28;20018;-72
2023/04/19 01:57:20;;;;;;;19.25;12.90;;;8.60;99.90;;;;;;4991528;28;20026;-72
2023/04/19 01:59:46;;;;;;;26.10;13.93;;;8.60;99.90;;;;;;5009082;28;20424;-72
2023/04/19 02:02:12;;;;;;;20.33;13.43;;;8.60;99.90;;;;;;5010094;28;20022;-72
2023/04/19 02:04:37;;;;;;;21.00;13.05;;;8.60;99.90;;;;;;5005984;28;20465;-71
2023/04/19 02:07:03;;;;;;;18.73;13.05;;;8.60;99.90;;;;;;5009251;28;20033;-72
2023/04/19 02:09:28;;;;;;;17.33;12.25;;;8.60;99.90;;;;;;4995558;28;20103;-71
2023/04/19 02:11:54;;;;;;;21.02;13.50;;;8.60;99.90;;;;;;5003928;28;20022;-71
2023/04/19 02:14:19;;;;;;;19.58;12.93;;;8.50;99.90;;;;;;5006226;28;20389;-71
2023/04/19 02:16:45;;;;;;;20.23;12.98;;;8.50;99.90;;;;;;4994660;28;20026;-73
2023/04/19 02:19:11;;;;;;;20.70;13.05;;;8.50;99.90;;;;;;5005990;28;20089;-72
2023/04/19 02:21:36;;;;;;;19.40;12.52;;;8.50;99.90;;;;;;5006370;28;20026;-72
2023/04/19 02:24:02;;;;;;;20.13;12.88;;;8.50;99.90;;;;;;5010066;28;20045;-71
2023/04/19 02:26:27;;;;;;;18.45;12.70;;;8.50;99.90;;;;;;4996911;28;20026;-72
2023/04/19 02:28:53;;;;;;;19.95;13.18;;;8.50;99.90;;;;;;5008783;28;20042;-72
2023/04/19 02:31:19;;;;;;;22.52;14.35;;;8.50;99.90;;;;;;5004807;28;20026;-71
2023/04/19 02:33:45;;;;;;;24.13;14.30;;;8.50;99.90;;;;;;5004714;28;20469;-71
2023/04/19 02:36:11;;;;;;;22.55;15.18;;;8.50;99.90;;;;;;4998014;28;20476;-72
2023/04/19 02:38:36;;;;;;;22.52;14.80;;;8.50;99.90;;;;;;5009088;28;20036;-72
2023/04/19 02:41:03;;;;;;;24.35;14.57;;;8.50;99.90;;;;;;5009213;28;20072;-72
2023/04/19 02:43:29;;;;;;;25.48;14.07;;;8.50;99.90;;;;;;5010682;28;20021;-72
2023/04/19 02:45:55;;;;;;;20.45;13.73;;;8.50;99.90;;;;;;5005010;28;20026;-72
2023/04/19 02:48:20;;;;;;;21.80;14.10;;;8.50;99.90;;;;;;5003181;28;20542;-72
2023/04/19 02:50:46;;;;;;;22.95;14.35;;;8.50;99.90;;;;;;5012529;28;20110;-72
2023/04/19 02:53:12;;;;;;;21.75;14.50;;;8.60;99.90;;;;;;5014396;28;20053;-73
2023/04/19 02:55:38;;;;;;;21.92;13.75;;;8.60;99.90;;;;;;5005840;28;20117;-72
2023/04/19 02:58:03;;;;;;;23.45;14.43;;;8.60;99.90;;;;;;4997304;28;20041;-71
2023/04/19 03:00:29;;;;;;;24.15;14.15;;;8.60;99.90;;;;;;5004763;28;20077;-72
2023/04/19 03:02:55;;;;;;;22.17;13.85;;;8.70;99.90;;;;;;5015145;28;20021;-71
2023/04/19 03:05:22;;;;;;;20.58;13.70;;;8.70;99.90;;;;;;5013891;28;20034;-71
2023/04/19 03:07:47;;;;;;;25.73;14.65;;;8.70;99.90;;;;;;5013511;28;20056;-72
2023/04/19 03:10:13;;;;;;;24.08;13.77;;;8.80;99.90;;;;;;5013126;28;20057;-72
2023/04/19 03:12:39;;;;;;;20.88;13.50;;;8.80;99.90;;;;;;5002908;28;20392;-72
2023/04/19 03:15:05;;;;;;;21.60;13.95;;;8.80;99.90;;;;;;5010582;28;20030;-70
2023/04/19 03:17:31;;;;;;;22.98;14.18;;;8.80;99.90;;;;;;5008495;28;20025;-72
2023/04/19 03:19:56;;;;;;;22.85;14.65;;;8.90;99.90;;;;;;5006765;28;20372;-72
2023/04/19 03:22:22;;;;;;;22.42;14.55;;;8.90;99.90;;;;;;5013718;28;20508;-72
2023/04/19 03:24:47;;;;;;;22.52;13.77;;;8.90;99.90;;;;;;5006106;28;20470;-72
2023/04/19 03:27:13;;;;;;;21.27;13.80;;;8.90;99.90;;;;;;5012889;28;20040;-71
2023/04/19 03:29:39;;;;;;;20.52;14.27;;;8.90;99.90;;;;;;5007013;28;20065;-72
2023/04/19 03:32:05;;;;;;;24.73;14.73;;;9.00;99.90;;;;;;5012484;28;20026;-73
2023/04/19 03:34:31;;;;;;;23.50;13.77;;;9.00;99.90;;;;;;5011101;28;20040;-72
2023/04/19 03:36:57;;;;;;;21.50;14.25;;;9.00;99.90;;;;;;5007603;28;20025;-72
2023/04/19 03:39:22;;;;;;;22.23;14.98;;;9.00;99.90;;;;;;5011905;28;20092;-72
2023/04/19 03:41:48;;;;;;;22.90;14.05;;;9.00;99.90;;;;;;5012789;28;20121;-72
2023/04/19 03:44:14;;;;;;;25.08;15.07;;;9.10;99.90;;;;;;5011927;28;20345;-72
2023/04/19 03:46:39;;;;;;;22.60;14.25;;;9.10;99.90;;;;;;5013548;28;20495;-71
2023/04/19 03:49:05;;;;;;;21.40;14.77;;;9.10;99.90;;;;;;5014743;28;20033;-72
2023/04/19 03:51:30;;;;;;;23.83;14.65;;;9.10;99.90;;;;;;5009498;28;20431;-71
2023/04/19 03:53:56;;;;;;;24.85;14.45;;;9.10;99.90;;;;;;5012906;28;20038;-72
2023/04/19 03:56:22;;;;;;;22.65;14.52;;;9.20;99.90;;;;;;5012510;28;20018;-72
2023/04/19 03:58:50;;;;;;;21.27;14.02;;;9.20;99.90;;;;;;5004790;28;20030;-72
2023/04/19 04:01:23;;;;;;;24.75;14.55;;;9.20;99.90;;;;;;5007573;28;20380;-73
2023/04/19 04:03:48;;;;;;;23.20;14.93;;;9.20;99.90;;;;;;5009051;28;20532;-71
2023/04/19 04:06:14;;;;;;;20.10;13.98;;;9.20;99.90;;;;;;5007298;28;20029;-71
2023/04/19 04:08:40;;;;;;;22.05;14.35;;;9.30;99.90;;;;;;5013882;28;20029;-71
2023/04/19 04:11:06;;;;;;;23.05;14.65;;;9.30;99.90;;;;;;5014115;28;20057;-71
2023/04/19 04:13:31;;;;;;;23.75;13.70;;;9.30;99.90;;;;;;5013606;28;20028;-72
2023/04/19 04:15:59;;;;;;;22.00;13.73;;;9.40;99.90;;;;;;5014351;28;20032;-72
2023/04/19 04:18:25;;;;;;;23.45;14.32;;;9.40;99.90;;;;;;5012996;28;20034;-72
2023/04/19 04:20:51;;;;;;;23.27;13.90;;;9.40;99.90;;;;;;5013248;28;20153;-72
2023/04/19 04:23:17;;;;;;;24.20;14.18;;;9.40;99.90;;;;;;5012891;28;20126;-71
2023/04/19 04:25:42;;;;;;;21.95;14.05;;;9.40;99.90;;;;;;5013713;28;20549;-71
2023/04/19 04:28:08;;;;;;;21.55;14.20;;;9.40;99.90;;;;;;5013302;28;20732;-71
2023/04/19 04:30:33;;;;;;;21.90;14.00;;;9.40;99.90;;;;;;5012965;28;20118;-72
2023/04/19 04:32:59;;;;;;;22.50;14.00;;;9.40;99.90;;;;;;5011637;28;20382;-72
2023/04/19 04:35:26;;;;;;;20.30;13.52;;;9.40;99.90;;;;;;5012089;28;20025;-72
2023/04/19 04:37:55;;;;;;;22.85;13.95;;;9.40;99.90;;;;;;5001530;28;20405;-72
2023/04/19 04:40:21;;;;;;;20.33;12.90;;;9.50;99.90;;;;;;5011974;28;20112;-72
2023/04/19 04:42:46;;;;;;;20.77;13.55;;;9.50;99.90;;;;;;5012919;28;20117;-72
2023/04/19 04:45:12;;;;;;;18.77;12.73;;;9.50;99.90;;;;;;5012738;28;20068;-72
2023/04/19 04:47:37;;;;;;;22.40;13.30;;;9.50;99.90;;;;;;5012879;28;20030;-72
2023/04/19 04:50:04;;;;;;;22.30;13.85;;;9.50;99.90;;;;;;5012321;28;20024;-71
2023/04/19 04:52:30;;;;;;;21.10;13.27;;;9.50;99.90;;;;;;5012575;28;20018;-73
2023/04/19 04:54:56;;;;;;;21.10;13.50;;;9.50;99.90;;;;;;5009660;28;20141;-71
2023/04/19 04:57:21;;;;;;;20.63;13.18;;;9.50;99.90;;;;;;5011315;28;20022;-72
2023/04/19 04:59:47;;;;;;;19.55;12.98;;;9.60;99.90;;;;;;5010826;28;20034;-72
2023/04/19 05:02:13;;;;;;;19.15;12.10;;;9.60;99.90;;;;;;5001922;28;20030;-72
2023/04/19 05:04:39;;;;;;;19.25;12.65;;;9.60;99.90;;;;;;5007015;28;20378;-72
2023/04/19 05:07:05;;;;;;;23.50;12.80;;;9.60;99.90;;;;;;5011103;28;20028;-72
2023/04/19 05:09:30;;;;;;;22.70;13.43;;;9.60;99.90;;;;;;5012241;28;20107;-72
2023/04/19 05:11:56;;;;;;;17.50;12.32;;;9.70;99.90;;;;;;5012930;28;20025;-71
2023/04/19 05:14:22;;;;;;;20.75;13.07;;;9.70;99.90;;;;;;5011770;28;20029;-72
2023/04/19 05:16:47;;;;;;;22.23;13.13;;;9.70;99.90;;;;;;5011292;28;20397;-71
2023/04/19 05:19:13;;;;;;;20.67;13.27;;;9.70;99.90;;;;;;5011889;28;20026;-71
2023/04/19 05:22:23;;;;;;;17.73;11.45;;;9.70;99.90;;;;;;5011764;28;20030;-74
2023/04/19 05:25:26;;;;;;;17.58;11.52;;;9.70;99.90;;;;;;5002792;28;20049;-73
2023/04/19 05:27:52;;;;;;;19.77;12.55;;;9.70;99.90;;;;;;5000703;28;20069;-72
2023/04/19 05:30:18;;;;;;;19.35;12.52;;;9.70;99.90;;;;;;5012181;28;20049;-73
2023/04/19 05:32:44;;;;;;;19.05;12.23;;;9.70;99.90;;;;;;5010210;28;20033;-71
2023/04/19 05:35:10;;;;;;;19.20;11.35;;;9.70;99.90;;;;;;5011734;28;20021;-71
2023/04/19 05:37:36;;;;;;;18.27;11.93;;;9.70;99.90;;;;;;5010786;28;20029;-71
2023/04/19 05:40:08;;;;;;;20.33;12.80;;;9.70;99.90;;;;;;5008617;28;20032;-71
2023/04/19 05:42:34;;;;;;;21.92;12.43;;;9.60;99.90;;;;;;5011084;28;20488;-72
2023/04/19 05:45:00;;;;;;;19.25;11.68;;;9.60;99.90;;;;;;5010681;28;20022;-71
2023/04/19 05:47:25;;;;;;;19.20;12.75;;;9.60;99.90;;;;;;5010505;28;20036;-71
2023/04/19 05:49:51;;;;;;;19.30;12.80;;;9.60;99.90;;;;;;5009963;28;20366;-72
2023/04/19 05:52:17;;;;;;;18.90;12.50;;;9.60;99.90;;;;;;5010297;28;20057;-72
2023/04/19 05:54:43;;;;;;;20.15;12.82;;;9.60;99.90;;;;;;5012453;28;20026;-71
2023/04/19 05:57:08;;;;;;;19.58;12.27;;;9.60;99.90;;;;;;5010331;28;20028;-71
2023/04/19 05:59:34;;;;;;;18.23;12.35;;;9.60;99.90;;;;;;5011587;28;20017;-71
2023/04/19 06:02:00;;;;;;;18.70;12.70;;;9.60;99.90;;;;;;5010722;28;20044;-71
2023/04/19 06:04:26;;;;;;;20.73;12.60;;;9.60;99.90;;;;;;5009915;28;20026;-72
2023/04/19 06:06:52;;;;;;;18.00;12.30;;;9.60;99.90;;;;;;5006894;28;20539;-71
2023/04/19 06:09:18;;;;;;;21.85;12.55;;;9.60;99.90;;;;;;5009002;28;20054;-71
2023/04/19 06:11:44;;;;;;;20.65;12.38;;;9.60;99.90;;;;;;4989215;28;20027;-72
2023/04/19 06:14:12;;;;;;;17.02;11.70;;;9.60;99.90;;;;;;5003519;28;20057;-72
2023/04/19 06:16:38;;;;;;;19.88;12.40;;;9.60;99.90;;;;;;5005427;28;20053;-72
2023/04/19 06:19:04;;;;;;;19.90;11.93;;;9.60;99.90;;;;;;5011355;28;20033;-72
2023/04/19 06:21:30;;;;;;;16.67;11.68;;;9.60;99.90;;;;;;5010793;28;20026;-72
2023/04/19 06:23:56;;;;;;;20.13;11.52;;;9.60;99.90;;;;;;5010966;28;20076;-71
2023/04/19 06:26:22;;;;;;;20.60;12.27;;;9.60;99.90;;;;;;5015055;28;20385;-72
2023/04/19 06:28:47;;;;;;;20.15;12.48;;;9.60;99.90;;;;;;4996181;28;20023;-72
2023/04/19 06:31:13;;;;;;;19.20;12.35;;;9.60;99.90;;;;;;5008786;28;20018;-72
2023/04/19 06:33:38;;;;;;;22.98;12.05;;;9.60;99.90;;;;;;5014377;28;20121;-71
2023/04/19 06:36:04;;;;;;;16.15;10.80;;;9.60;99.90;;;;;;5015276;28;20025;-71
2023/04/19 06:38:30;;;;;;;17.98;11.32;;;9.60;99.90;;;;;;5014957;28;20036;-72
2023/04/19 06:40:56;;;;;;;17.17;11.60;;;9.60;99.90;;;;;;5014882;28;20026;-72
2023/04/19 06:43:22;;;;;;;19.13;11.27;;;9.60;99.90;;;;;;5015117;28;20025;-72
2023/04/19 06:45:47;;;;;;;17.77;11.32;;;9.70;99.90;;;;;;5014924;28;20239;-72
2023/04/19 06:48:13;;;;;;;18.77;11.02;;;9.70;99.90;;;;;;5014724;28;20501;-72
2023/04/19 06:50:38;;;;;;;15.88;10.55;;;9.80;99.90;;;;;;5015175;28;20029;-72
2023/04/19 06:53:04;;;;;;;17.20;10.00;;;9.80;99.90;;;;;;5015024;28;20038;-72
2023/04/19 06:55:30;;;;;;;17.83;10.88;;;9.80;99.90;;;;;;5015394;28;20049;-72
2023/04/19 06:57:55;;;;;;;16.02;10.70;;;9.80;99.90;;;;;;5015347;28;20028;-72
2023/04/19 07:00:21;;;;;;;18.17;11.05;;;9.90;99.90;;;;;;5015729;28;20018;-71
2023/04/19 07:02:49;;;;;;;18.90;11.38;;;9.90;99.90;;;;;;5015722;28;20416;-72
2023/04/19 07:05:14;;;;;;;18.00;10.63;;;9.90;99.90;;;;;;5014947;28;20095;-71
2023/04/19 07:07:40;;;;;;;20.55;11.25;;;10.00;99.90;;;;;;5002205;28;20010;-71
2023/04/19 07:10:07;;;;;;;18.40;10.48;;;10.00;99.90;;;;;;5014700;28;20046;-71
2023/04/19 07:12:33;;;;;;;15.20;9.88;;;10.00;99.90;;;;;;5014459;28;20022;-71
2023/04/19 07:14:59;;;;;;;19.65;10.30;;;10.10;99.90;;;;;;5013877;28;20081;-71
2023/04/19 07:17:24;;;;;;;16.48;10.18;;;10.10;99.90;;;;;;5012134;28;20502;-72
2023/04/19 07:19:50;;;;;;;16.38;10.10;;;10.20;99.90;;;;;;5010780;28;20067;-71
2023/04/19 07:22:15;;;;;;;15.63;10.35;;;10.20;99.90;;;;;;5016059;28;20018;-72
2023/04/19 07:24:43;;;;;;;15.45;9.73;;;10.30;99.90;;;;;;5015015;28;20168;-71
2023/04/19 07:27:09;;;;;;;13.93;9.75;;;10.40;99.90;;;;;;5015999;28;20097;-71
2023/04/19 07:29:35;;;;;;;15.00;9.57;;;10.50;99.90;;;;;;5015369;28;20081;-70
2023/04/19 07:32:01;;;;;;;15.00;9.85;;;10.60;99.90;;;;;;5008424;28;20030;-71
2023/04/19 07:34:27;;;;;;;14.55;9.20;;;10.70;99.90;;;;;;5009948;28;20412;-71
2023/04/19 07:36:52;;;;;;;15.80;10.02;;;10.70;99.90;;;;;;5003632;28;20377;-71
2023/04/19 07:39:18;;;;;;;16.05;9.68;;;10.80;99.90;;;;;;5014954;28;20119;-71
2023/04/19 07:41:45;;;;;;;14.55;9.18;;;10.90;99.90;;;;;;5015772;28;20653;-71
2023/04/19 07:44:12;;;;;;;12.43;8.52;;;10.90;99.90;;;;;;5017269;28;20113;-71
2023/04/19 07:46:37;;;;;;;16.35;9.02;;;11.00;99.90;;;;;;5018540;28;20021;-72
2023/04/19 07:49:03;;;;;;;13.70;8.20;;;11.10;99.90;;;;;;5013890;28;20022;-71
2023/04/19 07:51:29;;;;;;;13.68;8.43;;;11.20;99.90;;;;;;5005986;28;20087;-71
2023/04/19 07:53:54;;;;;;;14.23;8.40;;;11.30;99.90;;;;;;5015650;28;20080;-71
2023/04/19 07:56:22;;;;;;;12.30;8.52;;;11.40;99.90;;;;;;5012591;28;20080;-71
2023/04/19 07:58:47;;;;;;;12.70;8.38;;;11.50;99.90;;;;;;5014622;28;20476;-71
2023/04/19 08:01:13;;;;;;;11.85;8.13;;;11.60;99.90;;;;;;5015265;28;20060;-73
2023/04/19 08:03:39;;;;;;;12.15;7.93;;;11.80;99.90;;;;;;5015195;28;20049;-71
2023/04/19 08:06:07;;;;;;;14.38;8.70;;;11.90;99.90;;;;;;5015162;28;20354;-72
2023/04/19 08:08:34;;;;;;;14.02;8.52;;;12.00;99.90;;;;;;5014450;28;20034;-72
2023/04/19 08:11:01;;;;;;;12.60;8.05;;;12.10;99.90;;;;;;5014978;28;20060;-72
2023/04/19 08:13:27;;;;;;;14.38;7.90;;;12.20;99.90;;;;;;5014678;28;20473;-71
2023/04/19 08:15:53;;;;;;;11.60;7.75;;;12.40;99.90;;;;;;5014803;28;20030;-72
2023/04/19 08:18:19;;;;;;;12.75;7.50;;;12.50;99.90;;;;;;5015014;28;20033;-71
2023/04/19 08:20:48;;;;;;;15.57;7.90;;;12.50;99.90;;;;;;5014282;28;20454;-71
2023/04/19 08:23:14;;;;;;;13.80;7.35;;;12.70;99.90;;;;;;5014457;28;20025;-71
2023/04/19 08:25:40;;;;;;;14.77;7.60;;;12.80;99.90;;;;;;5014404;28;20496;-71
2023/04/19 08:28:06;;;;;;;12.15;7.45;;;12.80;99.90;;;;;;5011748;28;20042;-71
2023/04/19 08:30:32;;;;;;;11.30;7.72;;;13.00;99.90;;;;;;5014930;28;20022;-71
2023/04/19 08:32:57;;;;;;;14.32;7.20;;;13.10;99.90;;;;;;5015052;28;20022;-71
2023/04/19 08:35:24;;;;;;;12.55;7.18;;;13.20;99.90;;;;;;5014020;28;20088;-71
2023/04/19 08:37:50;;;;;;;14.10;7.55;;;13.30;99.90;;;;;;5014475;28;20018;-71
2023/04/19 08:40:16;;;;;;;14.48;7.15;;;13.50;99.90;;;;;;5006416;28;20022;-72
2023/04/19 08:42:42;;;;;;;13.77;7.15;;;13.60;99.90;;;;;;5013586;28;20029;-71
2023/04/19 08:45:10;;;;;;;11.07;7.50;;;13.70;99.90;;;;;;5014227;28;20030;-71
2023/04/19 08:47:36;;;;;;;10.80;7.20;;;13.70;99.90;;;;;;5014198;28;20073;-71
2023/04/19 08:50:05;;;;;;;11.52;7.05;;;13.80;99.90;;;;;;5013739;28;20029;-71
2023/04/19 08:52:35;;;;;;;14.32;7.13;;;13.70;99.90;;;;;;5012890;28;20080;-73
2023/04/19 08:55:06;;;;;;;10.40;6.40;;;13.80;99.90;;;;;;5012307;28;20025;-72
2023/04/19 08:57:33;;;;;;;10.93;6.00;;;13.90;99.90;;;;;;5013171;28;20476;-72
2023/04/19 09:00:00;;;;;;;9.38;6.00;;;13.90;99.90;;;;;;4994729;28;20458;-71
2023/04/19 09:02:25;;;;;;;9.60;5.32;;;14.00;99.90;;;;;;5008045;28;20037;-71
2023/04/19 09:04:51;;;;;;;11.20;6.00;;;14.10;99.90;;;;;;5013389;28;20022;-72
2023/04/19 09:07:25;;;;;;;9.18;5.22;;;14.10;99.90;;;;;;5012885;28;20030;-72
2023/04/19 09:10:08;;;;;;;7.93;5.15;;;14.20;99.90;;;;;;5012951;28;20058;-72
2023/04/19 09:12:34;;;;;;;9.15;5.47;;;14.30;99.90;;;;;;5012597;28;20079;-72
2023/04/19 09:15:02;;;;;;;8.27;4.95;;;14.30;99.90;;;;;;5012647;28;20034;-72
2023/04/19 09:17:30;;;;;;;6.78;4.97;;;14.30;99.90;;;;;;5011341;28;20113;-72
2023/04/19 09:19:56;;;;;;;7.72;4.68;;;14.40;98.80;;;;;;5012603;28;20025;-72
2023/04/19 09:22:22;;;;;;;7.47;5.05;;;14.40;99.30;;;;;;5010863;28;20033;-72
2023/04/19 09:24:48;;;;;;;8.90;4.53;;;14.60;97.80;;;;;;5013696;28;20542;-72
2023/04/19 09:27:25;;;;;;;7.90;4.30;;;14.60;98.00;;;;;;5013795;28;20074;-72
2023/04/19 09:29:55;;;;;;;7.00;4.45;;;14.70;96.50;;;;;;5013414;28;20026;-72
2023/04/19 09:32:21;;;;;;;7.50;4.70;;;14.70;96.40;;;;;;5013944;28;20088;-73
2023/04/19 09:34:55;;;;;;;8.45;4.70;;;14.80;95.30;;;;;;5010361;28;20361;-73
2023/04/19 09:37:22;;;;;;;7.43;4.78;;;14.80;94.80;;;;;;5012949;28;20465;-72
2023/04/19 09:39:48;;;;;;;8.45;4.72;;;14.80;94.00;;;;;;5013220;28;20014;-72
2023/04/19 09:42:14;;;;;;;6.45;4.50;;;14.80;94.30;;;;;;5013104;28;20129;-72
2023/04/19 09:44:40;;;;;;;7.68;4.20;;;14.90;94.20;;;;;;5012958;28;20025;-72
2023/04/19 09:47:26;;;;;;;5.60;4.30;;;15.00;92.50;;;;;;5013014;28;20041;-72
2023/04/19 09:50:05;;;;;;;7.75;4.22;;;15.10;91.70;;;;;;5013395;28;20030;-71
2023/04/19 09:52:33;;;;;;;6.85;4.47;;;15.20;92.10;;;;;;5012619;28;20385;-72
2023/04/19 09:55:01;;;;;;;5.63;4.00;;;15.30;91.50;;;;;;4999947;28;20101;-71
2023/04/19 09:57:27;;;;;;;7.32;4.28;;;15.40;90.80;;;;;;5012794;28;20041;-71
2023/04/19 09:59:53;;;;;;;5.55;4.20;;;15.30;90.20;;;;;;5012454;28;20461;-72
2023/04/19 10:02:21;;;;;;;5.65;4.15;;;15.40;87.70;;;;;;5013003;28;20057;-71
2023/04/19 10:04:47;;;;;;;6.85;4.03;;;15.40;86.50;;;;;;5012520;28;20029;-71
2023/04/19 10:07:12;;;;;;;6.10;3.70;;;15.50;86.40;;;;;;5012215;28;20474;-71
2023/04/19 10:09:38;;;;;;;5.90;3.63;;;15.50;83.60;;;;;;5011502;28;20062;-72
2023/04/19 10:12:06;;;;;;;7.53;3.33;;;15.50;80.40;;;;;;5011660;28;20025;-71
2023/04/19 10:14:34;;;;;;;8.18;3.60;;;15.50;81.00;;;;;;5012920;28;20478;-71
2023/04/19 10:17:01;;;;;;;7.47;3.70;;;15.50;79.70;;;;;;5007155;28;20022;-72
2023/04/19 10:19:27;;;;;;;7.10;3.80;;;15.60;79.00;;;;;;5018811;28;20401;-71
2023/04/19 10:21:55;;;;;;;7.32;3.30;;;15.70;78.10;;;;;;5012667;28;20018;-71
2023/04/19 10:24:22;;;;;;;4.82;3.30;;;15.70;76.50;;;;;;5006370;28;20044;-71
2023/04/19 10:27:09;;;;;;;4.85;3.15;;;15.70;73.90;;;;;;5009329;28;20019;-72
2023/04/19 10:30:04;;;;;;;8.52;3.10;;;15.70;71.90;;;;;;5006479;28;20732;-72
2023/04/19 10:32:42;;;;;;;8.27;2.92;;;15.70;70.70;;;;;;5008341;28;20346;-71
2023/04/19 10:35:22;;;;;;;9.30;2.75;;;15.70;71.70;;;;;;5012434;28;20022;-72
2023/04/19 10:38:11;;;;;;;4.07;2.83;;;15.70;72.10;;;;;;5003094;28;20010;-72
2023/04/19 10:40:57;;;;;;;3.55;2.33;;;15.80;71.00;;;;;;5012047;28;20057;-72
2023/04/19 10:43:24;;;;;;;4.22;2.47;;;15.80;69.90;;;;;;5012016;28;20376;-72
2023/04/19 10:45:50;;;;;;;4.05;2.25;;;15.80;69.30;;;;;;5010258;28;20369;-71
2023/04/19 10:48:26;;;;;;;3.92;2.45;;;15.80;68.10;;;;;;5005616;28;20541;-71
2023/04/19 10:51:18;;;;;;;5.43;2.10;;;15.80;67.50;;;;;;5011333;28;20025;-71
2023/04/19 10:53:57;;;;;;;3.55;2.50;;;15.80;66.50;;;;;;5002040;28;20361;-71
2023/04/19 10:56:32;;;;;;;4.20;2.50;;;15.80;66.50;;;;;;4999099;28;20441;-71
2023/04/19 10:59:01;;;;;;;2.92;2.30;;;15.80;66.40;;;;;;5010971;28;20511;-72
2023/04/19 11:01:45;;;;;;;4.30;2.15;;;15.80;65.80;;;;;;5001490;28;20376;-73
2023/04/19 11:04:12;;;;;;;5.45;2.40;;;15.80;65.10;;;;;;5011523;28;20548;-71
2023/04/19 11:07:00;;;;;;;5.60;2.53;;;15.80;65.20;;;;;;5011872;28;20105;-72
2023/04/19 11:09:37;;;;;;;2.95;2.47;;;15.80;63.90;;;;;;5011908;28;20639;-72
2023/04/19 11:12:07;;;;;;;4.22;2.10;;;15.80;63.20;;;;;;5014080;28;20481;-72
2023/04/19 11:14:58;;;;;;;5.00;2.50;;;15.70;63.80;;;;;;5015448;28;20508;-72
2023/04/19 11:17:27;;;;;;;4.00;2.30;;;15.80;62.90;;;;;;5004686;28;20485;-72
2023/04/19 11:20:07;;;;;;;4.80;2.67;;;15.80;63.30;;;;;;5015070;28;20037;-72
2023/04/19 11:22:40;;;;;;;3.78;2.47;;;15.90;63.50;;;;;;5004747;28;20409;-72
2023/04/19 11:25:15;;;;;;;2.83;2.10;;;16.00;62.90;;;;;;5013756;28;20057;-71
2023/04/19 11:27:43;;;;;;;3.70;2.67;;;16.10;60.70;;;;;;5002471;28;20470;-71
2023/04/19 11:30:18;;;;;;;4.40;2.40;;;16.10;59.30;;;;;;5011743;28;20491;-71
2023/04/19 11:32:54;;;;;;;6.53;2.50;;;16.10;58.80;;;;;;5014719;28;20041;-71
2023/04/19 11:35:25;;;;;;;2.97;2.13;;;16.00;60.00;;;;;;5015116;28;20030;-71
2023/04/19 11:37:51;;;;;;;3.85;2.00;;;16.20;59.10;;;;;;5015510;28;20089;-72
2023/04/19 11:40:19;;;;;;;4.68;2.30;;;16.30;59.00;;;;;;5015183;28;20010;-72
2023/04/19 11:42:45;;;;;;;4.28;2.25;;;16.30;58.50;;;;;;5015697;28;20041;-72
2023/04/19 11:45:22;;;;;;;6.05;2.10;;;16.30;57.40;;;;;;5016721;28;20533;-72
2023/04/19 11:47:49;;;;;;;4.30;2.58;;;16.20;58.10;;;;;;5015344;28;20040;-72
2023/04/19 11:50:37;;;;;;;4.53;2.33;;;16.20;58.70;;;;;;5015177;28;20132;-72
2023/04/19 11:53:15;;;;;;;3.08;2.22;;;16.30;58.40;;;;;;5013519;28;20032;-72
2023/04/19 11:55:52;;;;;;;4.03;2.65;;;16.40;59.00;;;;;;5014804;28;20032;-72
2023/04/19 11:58:28;;;;;;;4.60;2.10;;;16.40;58.70;;;;;;5009086;28;20018;-72
2023/04/19 12:01:08;;;;;;;5.93;2.53;;;16.40;59.70;;;;;;5014148;28;20520;-72
2023/04/19 12:03:39;;;;;;;5.63;2.70;;;16.50;59.90;;;;;;5014007;28;20045;-73
2023/04/19 12:06:09;;;;;;;2.85;1.88;;;16.50;59.30;;;;;;5014176;28;20050;-71
2023/04/19 12:08:36;;;;;;;5.10;2.08;;;16.50;58.00;;;;;;5016005;28;20041;-73
2023/04/19 12:11:03;;;;;;;2.92;2.00;;;16.50;55.70;;;;;;5014526;28;20046;-72
2023/04/19 12:13:30;;;;;;;5.22;2.00;;;16.50;56.30;;;;;;5014755;28;20018;-72
2023/04/19 12:15:56;;;;;;;8.13;2.17;;;16.70;56.70;;;;;;5015065;28;20079;-73
2023/04/19 12:18:23;;;;;;;4.28;2.22;;;16.80;55.90;;;;;;5012183;28;20034;-72
2023/04/19 12:20:51;;;;;;;4.60;2.10;;;16.90;55.10;;;;;;5012796;28;20084;-72
2023/04/19 12:23:18;;;;;;;5.85;2.08;;;17.00;55.50;;;;;;5014188;28;20044;-72
2023/04/19 12:25:45;;;;;;;4.30;2.00;;;17.00;54.90;;;;;;5008716;28;20065;-71
2023/04/19 12:28:12;;;;;;;2.95;2.10;;;17.10;54.30;;;;;;5014756;28;20433;-72
2023/04/19 12:30:40;;;;;;;4.18;2.08;;;17.00;53.60;;;;;;5003578;28;20432;-73
2023/04/19 12:33:07;;;;;;;4.07;2.35;;;17.00;53.10;;;;;;5013079;28;20018;-72
2023/04/19 12:35:33;;;;;;;4.90;2.22;;;17.00;53.20;;;;;;5014794;28;20024;-72
2023/04/19 12:37:59;;;;;;;3.75;2.45;;;16.90;52.90;;;;;;5014816;28;20048;-72
2023/04/19 12:40:26;;;;;;;6.93;2.20;;;17.00;52.50;;;;;;5015067;28;20057;-73
2023/04/19 12:42:52;;;;;;;3.75;2.10;;;17.00;52.10;;;;;;5013896;28;20112;-72